Meita Maru — YJQE8 — position and weather

sailwx.info

Track history (hours):
 
Tides and Currents Weather Stations Pressure Air Temp Water Temp Dewpoint Dewpoint Depression Visibility Wind Speed Wind Dir Waves Ship Positions

Meita Maru

Last reported at 2014-Oct-31 02:33 UTC. Time now 2014-Nov-01 13:53 UTC.
Position N 31°45' W 116°42'.

Length 106 m; draft 4.6 m.

Type: Cargo ship. MMSI: 576419000.

Date/timePositionNaut miles runAvg speedWind from/ knotsBaromVisibWave heightAir tempDewpointWater temp
2014-Oct-31 02:33N 31°45' W 116°42'0 0.0
2014-Oct-31 01:24N 31°45' W 116°42'0 0.0
2014-Oct-30 23:33N 31°45' W 116°42'0 0.0
2014-Oct-30 22:33N 31°45' W 116°42'0 0.0
2014-Oct-30 10:09N 31°45' W 116°42'0 0.0
2014-Oct-30 09:30N 31°45' W 116°42'0 0.0
2014-Oct-30 08:15N 31°45' W 116°42'0 0.0
2014-Oct-30 05:33N 31°45' W 116°42'0 0.0
2014-Oct-30 04:09N 31°45' W 116°42'0 0.1
2014-Oct-30 03:12N 31°45' W 116°42'  
2014-Oct-25 14:33N 31°45' W 116°52'1413.9
2014-Oct-25 13:33N 31°43' W 117°08'1513.8
2014-Oct-25 12:29N 31°41' W 117°26'1313.8
2014-Oct-25 11:33N 31°40' W 117°40'1413.8
2014-Oct-25 10:32N 31°39' W 117°57'1413.8
2014-Oct-25 09:34N 31°37' W 118°13'2813.8
2014-Oct-25 07:32N 31°34' W 118°45'1814.0
2014-Oct-25 06:14N 31°32' W 119°06'1014.0
2014-Oct-25 05:33N 31°31' W 119°18'  
Track history (hours):
 
Tides and Currents Weather Stations Pressure Air Temp Water Temp Dewpoint Dewpoint Depression Visibility Wind Speed Wind Dir Waves Ship Positions

Meita Maru

Last reported at 2014-Oct-31 02:33 UTC. Time now 2014-Nov-01 13:53 UTC.
Position N 31°45' W 116°42'.

Length 106 m; draft 4.6 m.

Type: Cargo ship. MMSI: 576419000.

Date/timePositionNaut miles runAvg speedWind from/ knotsBaromVisibWave heightAir tempDewpointWater temp
2014-Oct-31 02:33N 31°45' W 116°42'0 0.0
2014-Oct-31 01:24N 31°45' W 116°42'0 0.0
2014-Oct-30 23:33N 31°45' W 116°42'0 0.0
2014-Oct-30 22:33N 31°45' W 116°42'0 0.0
2014-Oct-30 10:09N 31°45' W 116°42'0 0.0
2014-Oct-30 09:30N 31°45' W 116°42'0 0.0
2014-Oct-30 08:15N 31°45' W 116°42'0 0.0
2014-Oct-30 05:33N 31°45' W 116°42'0 0.0
2014-Oct-30 04:09N 31°45' W 116°42'0 0.1
2014-Oct-30 03:12N 31°45' W 116°42'  
2014-Oct-25 14:33N 31°45' W 116°52'1413.9
2014-Oct-25 13:33N 31°43' W 117°08'1513.8
2014-Oct-25 12:29N 31°41' W 117°26'1313.8
2014-Oct-25 11:33N 31°40' W 117°40'1413.8
2014-Oct-25 10:32N 31°39' W 117°57'1413.8
2014-Oct-25 09:34N 31°37' W 118°13'2813.8
2014-Oct-25 07:32N 31°34' W 118°45'1814.0
2014-Oct-25 06:14N 31°32' W 119°06'1014.0
2014-Oct-25 05:33N 31°31' W 119°18'  

Dump ship's entire track history